sensor_id;sensor_type;location;lat;lon;timestamp;P1;durP1;ratioP1;P2;durP2;ratioP2
68315;SDS011;55508;54.368;18.406;2022-12-18T00:01:33;98.03;;;31.42;;
68315;SDS011;55508;54.368;18.406;2022-12-18T00:04:02;98.00;;;33.85;;
68315;SDS011;55508;54.368;18.406;2022-12-18T00:06:31;101.50;;;37.13;;
68315;SDS011;55508;54.368;18.406;2022-12-18T00:08:59;107.22;;;38.70;;
68315;SDS011;55508;54.368;18.406;2022-12-18T00:11:28;104.40;;;36.55;;
68315;SDS011;55508;54.368;18.406;2022-12-18T00:13:57;98.40;;;35.28;;
68315;SDS011;55508;54.368;18.406;2022-12-18T00:16:25;110.57;;;42.83;;
68315;SDS011;55508;54.368;18.406;2022-12-18T00:18:53;115.90;;;40.20;;
68315;SDS011;55508;54.368;18.406;2022-12-18T00:21:21;119.57;;;39.50;;
68315;SDS011;55508;54.368;18.406;2022-12-18T00:23:49;116.32;;;39.67;;
68315;SDS011;55508;54.368;18.406;2022-12-18T00:26:17;110.68;;;39.70;;
68315;SDS011;55508;54.368;18.406;2022-12-18T00:28:48;108.75;;;37.25;;
68315;SDS011;55508;54.368;18.406;2022-12-18T00:31:16;112.70;;;36.97;;
68315;SDS011;55508;54.368;18.406;2022-12-18T00:33:45;109.57;;;39.30;;
68315;SDS011;55508;54.368;18.406;2022-12-18T00:36:15;121.35;;;37.75;;
68315;SDS011;55508;54.368;18.406;2022-12-18T00:38:44;135.68;;;37.17;;
68315;SDS011;55508;54.368;18.406;2022-12-18T00:41:12;116.15;;;37.83;;
68315;SDS011;55508;54.368;18.406;2022-12-18T00:44:00;116.03;;;37.75;;
68315;SDS011;55508;54.368;18.406;2022-12-18T00:46:28;125.22;;;38.70;;
68315;SDS011;55508;54.368;18.406;2022-12-18T00:48:55;124.50;;;38.78;;
68315;SDS011;55508;54.368;18.406;2022-12-18T00:51:22;125.85;;;40.40;;
68315;SDS011;55508;54.368;18.406;2022-12-18T00:53:49;123.68;;;38.53;;
68315;SDS011;55508;54.368;18.406;2022-12-18T00:56:16;126.18;;;38.72;;
68315;SDS011;55508;54.368;18.406;2022-12-18T00:58:43;119.80;;;35.22;;
68315;SDS011;55508;54.368;18.406;2022-12-18T01:01:10;101.13;;;35.20;;
68315;SDS011;55508;54.368;18.406;2022-12-18T01:03:38;96.50;;;34.70;;
68315;SDS011;55508;54.368;18.406;2022-12-18T01:06:06;94.00;;;33.88;;
68315;SDS011;55508;54.368;18.406;2022-12-18T01:08:35;114.40;;;34.40;;
68315;SDS011;55508;54.368;18.406;2022-12-18T01:11:08;98.18;;;34.17;;
68315;SDS011;55508;54.368;18.406;2022-12-18T01:13:39;139.43;;;38.33;;
68315;SDS011;55508;54.368;18.406;2022-12-18T01:16:07;132.60;;;39.60;;
68315;SDS011;55508;54.368;18.406;2022-12-18T01:18:35;107.25;;;34.63;;
68315;SDS011;55508;54.368;18.406;2022-12-18T01:21:09;94.97;;;33.00;;
68315;SDS011;55508;54.368;18.406;2022-12-18T01:23:37;90.15;;;33.17;;
68315;SDS011;55508;54.368;18.406;2022-12-18T01:26:06;93.82;;;31.48;;
68315;SDS011;55508;54.368;18.406;2022-12-18T01:28:34;98.32;;;34.10;;
68315;SDS011;55508;54.368;18.406;2022-12-18T01:33:51;95.03;;;33.67;;
68315;SDS011;55508;54.368;18.406;2022-12-18T01:36:19;109.47;;;36.78;;
68315;SDS011;55508;54.368;18.406;2022-12-18T01:38:48;108.75;;;40.45;;
68315;SDS011;55508;54.368;18.406;2022-12-18T01:41:16;119.80;;;42.33;;
68315;SDS011;55508;54.368;18.406;2022-12-18T01:46:16;117.80;;;44.95;;
68315;SDS011;55508;54.368;18.406;2022-12-18T01:48:44;123.93;;;45.50;;
68315;SDS011;55508;54.368;18.406;2022-12-18T01:51:13;114.60;;;42.58;;
68315;SDS011;55508;54.368;18.406;2022-12-18T01:53:41;119.57;;;42.25;;
68315;SDS011;55508;54.368;18.406;2022-12-18T01:56:10;110.07;;;40.83;;
68315;SDS011;55508;54.368;18.406;2022-12-18T02:04:43;91.85;;;33.17;;
68315;SDS011;55508;54.368;18.406;2022-12-18T02:12:16;89.70;;;33.70;;
68315;SDS011;55508;54.368;18.406;2022-12-18T02:14:52;93.18;;;32.95;;
68315;SDS011;55508;54.368;18.406;2022-12-18T02:17:22;94.80;;;32.83;;
68315;SDS011;55508;54.368;18.406;2022-12-18T02:19:55;78.40;;;33.22;;
68315;SDS011;55508;54.368;18.406;2022-12-18T02:25:12;89.18;;;33.10;;
68315;SDS011;55508;54.368;18.406;2022-12-18T02:27:45;82.75;;;31.70;;
68315;SDS011;55508;54.368;18.406;2022-12-18T02:30:13;84.82;;;31.58;;
68315;SDS011;55508;54.368;18.406;2022-12-18T02:32:42;87.32;;;32.42;;
68315;SDS011;55508;54.368;18.406;2022-12-18T02:35:15;93.38;;;34.10;;
68315;SDS011;55508;54.368;18.406;2022-12-18T02:37:49;88.53;;;33.03;;
68315;SDS011;55508;54.368;18.406;2022-12-18T02:40:16;96.25;;;34.05;;
68315;SDS011;55508;54.368;18.406;2022-12-18T02:42:44;92.65;;;33.13;;
68315;SDS011;55508;54.368;18.406;2022-12-18T02:45:14;90.63;;;33.07;;
68315;SDS011;55508;54.368;18.406;2022-12-18T02:47:42;83.13;;;31.33;;
68315;SDS011;55508;54.368;18.406;2022-12-18T02:53:06;85.88;;;31.10;;
68315;SDS011;55508;54.368;18.406;2022-12-18T02:58:20;81.90;;;30.27;;
68315;SDS011;55508;54.368;18.406;2022-12-18T03:03:44;87.28;;;30.80;;
68315;SDS011;55508;54.368;18.406;2022-12-18T03:06:35;73.75;;;28.08;;
68315;SDS011;55508;54.368;18.406;2022-12-18T03:09:08;74.50;;;28.98;;
68315;SDS011;55508;54.368;18.406;2022-12-18T03:11:37;83.72;;;30.15;;
68315;SDS011;55508;54.368;18.406;2022-12-18T03:14:25;77.47;;;29.05;;
68315;SDS011;55508;54.368;18.406;2022-12-18T03:16:54;78.80;;;29.60;;
68315;SDS011;55508;54.368;18.406;2022-12-18T03:19:26;60.17;;;22.58;;
68315;SDS011;55508;54.368;18.406;2022-12-18T03:21:57;68.78;;;26.95;;
68315;SDS011;55508;54.368;18.406;2022-12-18T03:24:26;81.70;;;28.05;;
68315;SDS011;55508;54.368;18.406;2022-12-18T03:26:57;84.93;;;29.33;;
68315;SDS011;55508;54.368;18.406;2022-12-18T03:29:28;70.93;;;26.67;;
68315;SDS011;55508;54.368;18.406;2022-12-18T03:32:05;65.18;;;26.52;;
68315;SDS011;55508;54.368;18.406;2022-12-18T03:34:37;64.75;;;25.63;;
68315;SDS011;55508;54.368;18.406;2022-12-18T03:37:07;57.93;;;24.90;;
68315;SDS011;55508;54.368;18.406;2022-12-18T03:39:35;61.00;;;25.20;;
68315;SDS011;55508;54.368;18.406;2022-12-18T03:51:02;62.72;;;24.33;;
68315;SDS011;55508;54.368;18.406;2022-12-18T03:56:15;49.70;;;22.77;;
68315;SDS011;55508;54.368;18.406;2022-12-18T03:58:43;55.10;;;23.35;;
68315;SDS011;55508;54.368;18.406;2022-12-18T04:01:25;58.80;;;22.27;;
68315;SDS011;55508;54.368;18.406;2022-12-18T04:03:55;62.65;;;22.98;;
68315;SDS011;55508;54.368;18.406;2022-12-18T04:06:23;53.95;;;22.48;;
68315;SDS011;55508;54.368;18.406;2022-12-18T04:08:50;58.70;;;22.05;;
68315;SDS011;55508;54.368;18.406;2022-12-18T04:11:21;61.13;;;22.35;;
68315;SDS011;55508;54.368;18.406;2022-12-18T04:13:48;54.13;;;21.58;;
68315;SDS011;55508;54.368;18.406;2022-12-18T04:16:21;51.50;;;22.92;;
68315;SDS011;55508;54.368;18.406;2022-12-18T04:18:52;51.97;;;22.30;;
68315;SDS011;55508;54.368;18.406;2022-12-18T04:21:21;51.10;;;21.63;;
68315;SDS011;55508;54.368;18.406;2022-12-18T04:23:49;52.40;;;21.13;;
68315;SDS011;55508;54.368;18.406;2022-12-18T04:26:19;51.38;;;21.48;;
68315;SDS011;55508;54.368;18.406;2022-12-18T04:29:05;46.30;;;19.08;;
68315;SDS011;55508;54.368;18.406;2022-12-18T04:31:32;44.08;;;20.88;;
68315;SDS011;55508;54.368;18.406;2022-12-18T04:34:01;51.33;;;22.08;;
68315;SDS011;55508;54.368;18.406;2022-12-18T04:36:34;41.42;;;18.77;;
68315;SDS011;55508;54.368;18.406;2022-12-18T04:39:01;46.40;;;20.83;;
68315;SDS011;55508;54.368;18.406;2022-12-18T04:41:29;46.53;;;21.00;;
68315;SDS011;55508;54.368;18.406;2022-12-18T04:43:57;51.58;;;22.42;;
68315;SDS011;55508;54.368;18.406;2022-12-18T04:46:24;50.85;;;21.65;;
68315;SDS011;55508;54.368;18.406;2022-12-18T04:48:51;50.67;;;21.55;;
68315;SDS011;55508;54.368;18.406;2022-12-18T04:51:18;49.67;;;21.23;;
68315;SDS011;55508;54.368;18.406;2022-12-18T04:53:52;48.97;;;22.25;;
68315;SDS011;55508;54.368;18.406;2022-12-18T04:56:19;51.38;;;22.55;;
68315;SDS011;55508;54.368;18.406;2022-12-18T04:58:46;49.83;;;21.55;;
68315;SDS011;55508;54.368;18.406;2022-12-18T05:01:14;46.58;;;20.98;;
68315;SDS011;55508;54.368;18.406;2022-12-18T05:03:42;50.25;;;21.83;;
68315;SDS011;55508;54.368;18.406;2022-12-18T05:06:10;44.25;;;22.10;;
68315;SDS011;55508;54.368;18.406;2022-12-18T05:08:37;51.55;;;21.45;;
68315;SDS011;55508;54.368;18.406;2022-12-18T05:11:06;43.35;;;20.88;;
68315;SDS011;55508;54.368;18.406;2022-12-18T05:13:36;39.72;;;15.98;;
68315;SDS011;55508;54.368;18.406;2022-12-18T05:16:05;48.08;;;22.55;;
68315;SDS011;55508;54.368;18.406;2022-12-18T05:18:33;54.75;;;21.67;;
68315;SDS011;55508;54.368;18.406;2022-12-18T05:21:00;49.72;;;21.30;;
68315;SDS011;55508;54.368;18.406;2022-12-18T05:23:27;48.90;;;21.92;;
68315;SDS011;55508;54.368;18.406;2022-12-18T05:25:56;43.83;;;20.63;;
68315;SDS011;55508;54.368;18.406;2022-12-18T05:28:25;50.20;;;20.83;;
68315;SDS011;55508;54.368;18.406;2022-12-18T05:30:56;47.47;;;20.15;;
68315;SDS011;55508;54.368;18.406;2022-12-18T05:33:25;46.17;;;20.80;;
68315;SDS011;55508;54.368;18.406;2022-12-18T05:35:54;43.42;;;20.88;;
68315;SDS011;55508;54.368;18.406;2022-12-18T05:38:22;44.88;;;20.60;;
68315;SDS011;55508;54.368;18.406;2022-12-18T05:40:51;45.17;;;20.75;;
68315;SDS011;55508;54.368;18.406;2022-12-18T05:43:18;45.97;;;20.55;;
68315;SDS011;55508;54.368;18.406;2022-12-18T05:45:48;44.88;;;20.63;;
68315;SDS011;55508;54.368;18.406;2022-12-18T05:48:16;45.05;;;20.75;;
68315;SDS011;55508;54.368;18.406;2022-12-18T05:50:44;49.20;;;21.55;;
68315;SDS011;55508;54.368;18.406;2022-12-18T05:53:13;50.15;;;21.30;;
68315;SDS011;55508;54.368;18.406;2022-12-18T05:55:42;44.50;;;21.65;;
68315;SDS011;55508;54.368;18.406;2022-12-18T05:58:10;43.70;;;20.70;;
68315;SDS011;55508;54.368;18.406;2022-12-18T06:00:40;46.30;;;20.65;;
68315;SDS011;55508;54.368;18.406;2022-12-18T06:03:09;50.63;;;23.90;;
68315;SDS011;55508;54.368;18.406;2022-12-18T06:05:37;59.88;;;26.52;;
68315;SDS011;55508;54.368;18.406;2022-12-18T06:08:09;65.68;;;28.60;;
68315;SDS011;55508;54.368;18.406;2022-12-18T06:10:37;57.10;;;26.92;;
68315;SDS011;55508;54.368;18.406;2022-12-18T06:13:04;69.82;;;31.83;;
68315;SDS011;55508;54.368;18.406;2022-12-18T06:15:32;66.30;;;30.55;;
68315;SDS011;55508;54.368;18.406;2022-12-18T06:18:00;55.50;;;26.92;;
68315;SDS011;55508;54.368;18.406;2022-12-18T06:20:27;56.67;;;25.88;;
68315;SDS011;55508;54.368;18.406;2022-12-18T06:22:59;51.53;;;23.13;;
68315;SDS011;55508;54.368;18.406;2022-12-18T06:25:26;48.85;;;23.60;;
68315;SDS011;55508;54.368;18.406;2022-12-18T06:27:53;44.88;;;22.95;;
68315;SDS011;55508;54.368;18.406;2022-12-18T06:30:20;50.70;;;23.90;;
68315;SDS011;55508;54.368;18.406;2022-12-18T06:32:48;48.88;;;22.55;;
68315;SDS011;55508;54.368;18.406;2022-12-18T06:35:21;46.97;;;22.13;;
68315;SDS011;55508;54.368;18.406;2022-12-18T06:37:49;46.78;;;22.23;;
68315;SDS011;55508;54.368;18.406;2022-12-18T06:40:16;56.33;;;24.50;;
68315;SDS011;55508;54.368;18.406;2022-12-18T06:42:43;51.50;;;24.58;;
68315;SDS011;55508;54.368;18.406;2022-12-18T06:45:10;55.60;;;24.75;;
68315;SDS011;55508;54.368;18.406;2022-12-18T06:47:38;50.15;;;23.25;;
68315;SDS011;55508;54.368;18.406;2022-12-18T06:50:05;51.05;;;23.60;;
68315;SDS011;55508;54.368;18.406;2022-12-18T06:52:32;50.38;;;24.08;;
68315;SDS011;55508;54.368;18.406;2022-12-18T06:55:00;44.00;;;21.67;;
68315;SDS011;55508;54.368;18.406;2022-12-18T06:57:27;50.15;;;23.92;;
68315;SDS011;55508;54.368;18.406;2022-12-18T06:59:54;54.10;;;25.52;;
68315;SDS011;55508;54.368;18.406;2022-12-18T07:02:21;51.13;;;24.02;;
68315;SDS011;55508;54.368;18.406;2022-12-18T07:04:50;50.00;;;24.10;;
68315;SDS011;55508;54.368;18.406;2022-12-18T07:07:17;46.00;;;23.63;;
68315;SDS011;55508;54.368;18.406;2022-12-18T07:09:44;57.13;;;24.85;;
68315;SDS011;55508;54.368;18.406;2022-12-18T07:12:11;48.90;;;23.77;;
68315;SDS011;55508;54.368;18.406;2022-12-18T07:14:38;46.08;;;23.52;;
68315;SDS011;55508;54.368;18.406;2022-12-18T07:17:06;49.40;;;25.02;;
68315;SDS011;55508;54.368;18.406;2022-12-18T07:19:33;47.78;;;24.13;;
68315;SDS011;55508;54.368;18.406;2022-12-18T07:22:01;53.50;;;25.63;;
68315;SDS011;55508;54.368;18.406;2022-12-18T07:24:30;52.22;;;26.60;;
68315;SDS011;55508;54.368;18.406;2022-12-18T07:26:57;46.10;;;24.63;;
68315;SDS011;55508;54.368;18.406;2022-12-18T07:29:25;55.03;;;26.60;;
68315;SDS011;55508;54.368;18.406;2022-12-18T07:31:52;59.75;;;27.67;;
68315;SDS011;55508;54.368;18.406;2022-12-18T07:34:19;57.10;;;28.50;;
68315;SDS011;55508;54.368;18.406;2022-12-18T07:36:47;56.72;;;28.05;;
68315;SDS011;55508;54.368;18.406;2022-12-18T07:39:14;62.67;;;28.75;;
68315;SDS011;55508;54.368;18.406;2022-12-18T07:41:41;62.25;;;29.65;;
68315;SDS011;55508;54.368;18.406;2022-12-18T07:44:31;56.00;;;27.33;;
68315;SDS011;55508;54.368;18.406;2022-12-18T07:46:59;57.50;;;29.50;;
68315;SDS011;55508;54.368;18.406;2022-12-18T07:49:26;67.50;;;31.70;;
68315;SDS011;55508;54.368;18.406;2022-12-18T07:51:54;73.20;;;34.38;;
68315;SDS011;55508;54.368;18.406;2022-12-18T07:54:23;77.20;;;35.38;;
68315;SDS011;55508;54.368;18.406;2022-12-18T07:56:51;74.32;;;33.33;;
68315;SDS011;55508;54.368;18.406;2022-12-18T07:59:18;77.78;;;35.78;;
68315;SDS011;55508;54.368;18.406;2022-12-18T08:01:46;76.20;;;35.08;;
68315;SDS011;55508;54.368;18.406;2022-12-18T08:04:13;70.10;;;33.55;;
68315;SDS011;55508;54.368;18.406;2022-12-18T08:06:40;67.90;;;32.15;;
68315;SDS011;55508;54.368;18.406;2022-12-18T08:09:13;76.95;;;37.42;;
68315;SDS011;55508;54.368;18.406;2022-12-18T08:11:40;78.68;;;38.67;;
68315;SDS011;55508;54.368;18.406;2022-12-18T08:14:07;76.80;;;37.45;;
68315;SDS011;55508;54.368;18.406;2022-12-18T08:16:35;72.00;;;36.75;;
68315;SDS011;55508;54.368;18.406;2022-12-18T08:19:02;74.53;;;36.35;;
68315;SDS011;55508;54.368;18.406;2022-12-18T08:21:30;72.30;;;33.85;;
68315;SDS011;55508;54.368;18.406;2022-12-18T08:23:58;65.10;;;31.08;;
68315;SDS011;55508;54.368;18.406;2022-12-18T08:26:27;65.10;;;29.90;;
68315;SDS011;55508;54.368;18.406;2022-12-18T08:28:57;65.35;;;28.83;;
68315;SDS011;55508;54.368;18.406;2022-12-18T08:31:25;57.58;;;27.77;;
68315;SDS011;55508;54.368;18.406;2022-12-18T08:33:53;64.35;;;29.17;;
68315;SDS011;55508;54.368;18.406;2022-12-18T08:36:22;67.40;;;29.98;;
68315;SDS011;55508;54.368;18.406;2022-12-18T08:38:51;67.60;;;33.28;;
68315;SDS011;55508;54.368;18.406;2022-12-18T08:41:19;68.82;;;30.60;;
68315;SDS011;55508;54.368;18.406;2022-12-18T08:43:47;63.47;;;29.98;;
68315;SDS011;55508;54.368;18.406;2022-12-18T08:46:35;66.43;;;29.95;;
68315;SDS011;55508;54.368;18.406;2022-12-18T08:49:07;63.60;;;28.95;;
68315;SDS011;55508;54.368;18.406;2022-12-18T08:51:34;67.35;;;30.50;;
68315;SDS011;55508;54.368;18.406;2022-12-18T08:54:02;56.75;;;28.48;;
68315;SDS011;55508;54.368;18.406;2022-12-18T08:56:32;63.97;;;29.20;;
68315;SDS011;55508;54.368;18.406;2022-12-18T08:58:59;58.03;;;28.83;;
68315;SDS011;55508;54.368;18.406;2022-12-18T09:01:26;58.17;;;28.92;;
68315;SDS011;55508;54.368;18.406;2022-12-18T09:03:54;62.10;;;30.67;;
68315;SDS011;55508;54.368;18.406;2022-12-18T09:06:21;59.85;;;29.35;;
68315;SDS011;55508;54.368;18.406;2022-12-18T09:08:49;59.63;;;27.70;;
68315;SDS011;55508;54.368;18.406;2022-12-18T09:11:26;54.78;;;28.80;;
68315;SDS011;55508;54.368;18.406;2022-12-18T09:13:54;63.22;;;29.77;;
68315;SDS011;55508;54.368;18.406;2022-12-18T09:16:22;67.50;;;31.48;;
68315;SDS011;55508;54.368;18.406;2022-12-18T09:18:57;31.40;;;17.42;;
68315;SDS011;55508;54.368;18.406;2022-12-18T09:21:29;52.33;;;25.92;;
68315;SDS011;55508;54.368;18.406;2022-12-18T09:24:02;85.75;;;48.55;;
68315;SDS011;55508;54.368;18.406;2022-12-18T09:26:33;63.05;;;29.80;;
68315;SDS011;55508;54.368;18.406;2022-12-18T09:29:00;67.10;;;30.25;;
68315;SDS011;55508;54.368;18.406;2022-12-18T09:31:27;62.97;;;28.95;;
68315;SDS011;55508;54.368;18.406;2022-12-18T09:33:54;59.42;;;29.75;;
68315;SDS011;55508;54.368;18.406;2022-12-18T09:36:23;62.53;;;30.08;;
68315;SDS011;55508;54.368;18.406;2022-12-18T09:38:50;60.22;;;28.40;;
68315;SDS011;55508;54.368;18.406;2022-12-18T09:44:03;62.00;;;29.50;;
68315;SDS011;55508;54.368;18.406;2022-12-18T09:46:38;64.55;;;31.52;;
68315;SDS011;55508;54.368;18.406;2022-12-18T09:49:11;68.57;;;31.83;;
68315;SDS011;55508;54.368;18.406;2022-12-18T09:51:45;64.13;;;31.48;;
68315;SDS011;55508;54.368;18.406;2022-12-18T09:54:26;58.97;;;28.13;;
68315;SDS011;55508;54.368;18.406;2022-12-18T09:57:04;66.13;;;29.60;;
68315;SDS011;55508;54.368;18.406;2022-12-18T09:59:33;65.68;;;30.95;;
68315;SDS011;55508;54.368;18.406;2022-12-18T10:05:10;66.25;;;30.48;;
68315;SDS011;55508;54.368;18.406;2022-12-18T10:10:43;70.15;;;29.83;;
68315;SDS011;55508;54.368;18.406;2022-12-18T10:21:34;55.72;;;26.63;;
68315;SDS011;55508;54.368;18.406;2022-12-18T10:27:15;55.40;;;26.50;;
68315;SDS011;55508;54.368;18.406;2022-12-18T10:29:44;48.35;;;23.67;;
68315;SDS011;55508;54.368;18.406;2022-12-18T10:32:19;45.15;;;22.23;;
68315;SDS011;55508;54.368;18.406;2022-12-18T10:34:53;46.08;;;21.05;;
68315;SDS011;55508;54.368;18.406;2022-12-18T10:37:27;46.25;;;21.63;;
68315;SDS011;55508;54.368;18.406;2022-12-18T10:45:41;39.85;;;19.40;;
68315;SDS011;55508;54.368;18.406;2022-12-18T10:48:21;37.28;;;18.85;;
68315;SDS011;55508;54.368;18.406;2022-12-18T10:50:49;35.78;;;18.98;;
68315;SDS011;55508;54.368;18.406;2022-12-18T10:53:38;35.80;;;17.80;;
68315;SDS011;55508;54.368;18.406;2022-12-18T10:56:07;32.28;;;16.65;;
68315;SDS011;55508;54.368;18.406;2022-12-18T10:58:35;37.75;;;18.38;;
68315;SDS011;55508;54.368;18.406;2022-12-18T11:03:39;40.25;;;18.98;;
68315;SDS011;55508;54.368;18.406;2022-12-18T11:06:10;38.17;;;17.23;;
68315;SDS011;55508;54.368;18.406;2022-12-18T11:08:39;33.85;;;18.08;;
68315;SDS011;55508;54.368;18.406;2022-12-18T11:11:21;37.35;;;18.73;;
68315;SDS011;55508;54.368;18.406;2022-12-18T11:16:54;42.22;;;19.33;;
68315;SDS011;55508;54.368;18.406;2022-12-18T11:19:41;39.88;;;19.02;;
68315;SDS011;55508;54.368;18.406;2022-12-18T11:24:59;38.25;;;16.95;;
68315;SDS011;55508;54.368;18.406;2022-12-18T11:27:52;32.25;;;15.68;;
68315;SDS011;55508;54.368;18.406;2022-12-18T11:30:23;33.90;;;16.05;;
68315;SDS011;55508;54.368;18.406;2022-12-18T11:32:55;31.40;;;15.13;;
68315;SDS011;55508;54.368;18.406;2022-12-18T11:38:20;27.05;;;15.43;;
68315;SDS011;55508;54.368;18.406;2022-12-18T11:46:15;31.02;;;15.98;;
68315;SDS011;55508;54.368;18.406;2022-12-18T11:48:52;33.55;;;16.73;;
68315;SDS011;55508;54.368;18.406;2022-12-18T11:51:31;30.77;;;15.18;;
68315;SDS011;55508;54.368;18.406;2022-12-18T11:54:09;27.50;;;13.70;;
68315;SDS011;55508;54.368;18.406;2022-12-18T11:56:42;30.42;;;14.43;;
68315;SDS011;55508;54.368;18.406;2022-12-18T12:04:56;29.20;;;15.50;;
68315;SDS011;55508;54.368;18.406;2022-12-18T12:07:38;26.37;;;14.23;;
68315;SDS011;55508;54.368;18.406;2022-12-18T12:13:21;22.98;;;11.68;;
68315;SDS011;55508;54.368;18.406;2022-12-18T12:15:58;26.42;;;12.82;;
68315;SDS011;55508;54.368;18.406;2022-12-18T12:18:45;22.70;;;12.80;;
68315;SDS011;55508;54.368;18.406;2022-12-18T12:38:07;28.15;;;13.32;;
68315;SDS011;55508;54.368;18.406;2022-12-18T12:40:39;30.70;;;15.63;;
68315;SDS011;55508;54.368;18.406;2022-12-18T12:43:33;27.98;;;13.25;;
68315;SDS011;55508;54.368;18.406;2022-12-18T12:46:17;27.88;;;13.45;;
68315;SDS011;55508;54.368;18.406;2022-12-18T12:49:01;22.02;;;12.98;;
68315;SDS011;55508;54.368;18.406;2022-12-18T12:51:37;23.58;;;11.60;;
68315;SDS011;55508;54.368;18.406;2022-12-18T12:54:17;20.17;;;11.48;;
68315;SDS011;55508;54.368;18.406;2022-12-18T12:56:53;15.45;;;9.63;;
68315;SDS011;55508;54.368;18.406;2022-12-18T13:05:00;32.78;;;14.50;;
68315;SDS011;55508;54.368;18.406;2022-12-18T13:08:08;29.92;;;13.88;;
68315;SDS011;55508;54.368;18.406;2022-12-18T13:10:52;47.85;;;19.55;;
68315;SDS011;55508;54.368;18.406;2022-12-18T13:13:52;38.95;;;17.73;;
68315;SDS011;55508;54.368;18.406;2022-12-18T13:16:21;32.90;;;16.63;;
68315;SDS011;55508;54.368;18.406;2022-12-18T13:18:51;45.20;;;19.95;;
68315;SDS011;55508;54.368;18.406;2022-12-18T13:21:25;30.83;;;14.52;;
68315;SDS011;55508;54.368;18.406;2022-12-18T13:23:55;31.40;;;14.30;;
68315;SDS011;55508;54.368;18.406;2022-12-18T13:29:13;28.25;;;14.45;;
68315;SDS011;55508;54.368;18.406;2022-12-18T13:32:18;31.55;;;14.23;;
68315;SDS011;55508;54.368;18.406;2022-12-18T13:35:37;26.95;;;13.82;;
68315;SDS011;55508;54.368;18.406;2022-12-18T13:38:19;24.65;;;12.93;;
68315;SDS011;55508;54.368;18.406;2022-12-18T13:43:48;22.80;;;12.82;;
68315;SDS011;55508;54.368;18.406;2022-12-18T13:51:41;30.85;;;15.35;;
68315;SDS011;55508;54.368;18.406;2022-12-18T13:54:21;26.55;;;14.15;;
68315;SDS011;55508;54.368;18.406;2022-12-18T13:56:54;31.55;;;15.82;;
68315;SDS011;55508;54.368;18.406;2022-12-18T13:59:25;25.80;;;15.25;;
68315;SDS011;55508;54.368;18.406;2022-12-18T14:04:47;32.15;;;15.95;;
68315;SDS011;55508;54.368;18.406;2022-12-18T14:09:49;28.88;;;15.00;;
68315;SDS011;55508;54.368;18.406;2022-12-18T14:12:24;30.55;;;15.63;;
68315;SDS011;55508;54.368;18.406;2022-12-18T14:15:22;29.95;;;15.25;;
68315;SDS011;55508;54.368;18.406;2022-12-18T14:17:57;36.33;;;16.70;;
68315;SDS011;55508;54.368;18.406;2022-12-18T14:20:30;34.83;;;17.02;;
68315;SDS011;55508;54.368;18.406;2022-12-18T14:22:58;31.13;;;15.63;;
68315;SDS011;55508;54.368;18.406;2022-12-18T14:25:28;24.08;;;14.10;;
68315;SDS011;55508;54.368;18.406;2022-12-18T14:28:08;22.80;;;11.55;;
68315;SDS011;55508;54.368;18.406;2022-12-18T14:30:44;20.95;;;12.32;;
68315;SDS011;55508;54.368;18.406;2022-12-18T14:36:03;33.35;;;15.32;;
68315;SDS011;55508;54.368;18.406;2022-12-18T14:38:38;33.22;;;15.02;;
68315;SDS011;55508;54.368;18.406;2022-12-18T14:41:10;27.13;;;12.80;;
68315;SDS011;55508;54.368;18.406;2022-12-18T14:43:44;22.10;;;11.70;;
68315;SDS011;55508;54.368;18.406;2022-12-18T14:51:51;26.55;;;14.30;;
68315;SDS011;55508;54.368;18.406;2022-12-18T14:54:21;48.65;;;20.65;;
68315;SDS011;55508;54.368;18.406;2022-12-18T14:56:50;24.67;;;13.70;;
68315;SDS011;55508;54.368;18.406;2022-12-18T14:59:22;30.98;;;13.95;;
68315;SDS011;55508;54.368;18.406;2022-12-18T15:04:43;31.48;;;14.85;;
68315;SDS011;55508;54.368;18.406;2022-12-18T15:09:38;35.83;;;16.80;;
68315;SDS011;55508;54.368;18.406;2022-12-18T15:14:57;30.70;;;14.48;;
68315;SDS011;55508;54.368;18.406;2022-12-18T15:17:24;32.95;;;14.63;;
68315;SDS011;55508;54.368;18.406;2022-12-18T15:19:53;28.77;;;13.20;;
68315;SDS011;55508;54.368;18.406;2022-12-18T15:22:30;27.20;;;13.77;;
68315;SDS011;55508;54.368;18.406;2022-12-18T15:24:59;26.80;;;13.27;;
68315;SDS011;55508;54.368;18.406;2022-12-18T15:27:33;28.85;;;14.20;;
68315;SDS011;55508;54.368;18.406;2022-12-18T15:32:36;36.90;;;15.73;;
68315;SDS011;55508;54.368;18.406;2022-12-18T15:37:42;41.03;;;17.10;;
68315;SDS011;55508;54.368;18.406;2022-12-18T15:40:14;39.63;;;16.38;;
68315;SDS011;55508;54.368;18.406;2022-12-18T15:42:46;39.28;;;16.48;;
68315;SDS011;55508;54.368;18.406;2022-12-18T15:45:32;41.97;;;16.88;;
68315;SDS011;55508;54.368;18.406;2022-12-18T15:47:59;36.90;;;16.73;;
68315;SDS011;55508;54.368;18.406;2022-12-18T15:50:26;41.67;;;17.05;;
68315;SDS011;55508;54.368;18.406;2022-12-18T15:52:54;38.10;;;16.60;;
68315;SDS011;55508;54.368;18.406;2022-12-18T15:55:22;38.70;;;17.00;;
68315;SDS011;55508;54.368;18.406;2022-12-18T15:58:09;40.55;;;17.50;;
68315;SDS011;55508;54.368;18.406;2022-12-18T16:00:38;34.83;;;17.70;;
68315;SDS011;55508;54.368;18.406;2022-12-18T16:03:06;36.22;;;17.15;;
68315;SDS011;55508;54.368;18.406;2022-12-18T16:05:34;39.00;;;17.77;;
68315;SDS011;55508;54.368;18.406;2022-12-18T16:08:01;38.00;;;17.60;;
68315;SDS011;55508;54.368;18.406;2022-12-18T16:10:28;41.97;;;17.73;;
68315;SDS011;55508;54.368;18.406;2022-12-18T16:12:55;37.42;;;17.23;;
68315;SDS011;55508;54.368;18.406;2022-12-18T16:15:22;37.05;;;16.70;;
68315;SDS011;55508;54.368;18.406;2022-12-18T16:17:50;43.80;;;17.33;;
68315;SDS011;55508;54.368;18.406;2022-12-18T16:20:21;39.17;;;15.30;;
68315;SDS011;55508;54.368;18.406;2022-12-18T16:22:49;31.27;;;13.77;;
68315;SDS011;55508;54.368;18.406;2022-12-18T16:25:20;37.72;;;17.27;;
68315;SDS011;55508;54.368;18.406;2022-12-18T16:27:48;42.42;;;17.90;;
68315;SDS011;55508;54.368;18.406;2022-12-18T16:30:22;46.25;;;20.80;;
68315;SDS011;55508;54.368;18.406;2022-12-18T16:32:51;42.35;;;18.60;;
68315;SDS011;55508;54.368;18.406;2022-12-18T16:35:18;47.35;;;20.42;;
68315;SDS011;55508;54.368;18.406;2022-12-18T16:37:46;48.05;;;18.08;;
68315;SDS011;55508;54.368;18.406;2022-12-18T16:40:14;44.92;;;17.90;;
68315;SDS011;55508;54.368;18.406;2022-12-18T16:42:43;47.33;;;18.92;;
68315;SDS011;55508;54.368;18.406;2022-12-18T16:45:12;45.50;;;18.33;;
68315;SDS011;55508;54.368;18.406;2022-12-18T16:47:41;47.55;;;19.25;;
68315;SDS011;55508;54.368;18.406;2022-12-18T16:50:09;48.22;;;18.95;;
68315;SDS011;55508;54.368;18.406;2022-12-18T16:52:36;55.10;;;19.95;;
68315;SDS011;55508;54.368;18.406;2022-12-18T16:55:04;44.40;;;18.63;;
68315;SDS011;55508;54.368;18.406;2022-12-18T16:57:31;44.03;;;18.77;;
68315;SDS011;55508;54.368;18.406;2022-12-18T16:59:59;45.20;;;18.05;;
68315;SDS011;55508;54.368;18.406;2022-12-18T17:02:31;44.22;;;18.88;;